createdAt,value
2018-05-21T00:00:18.257Z,63.00
2018-05-21T00:02:48.037Z,65.00
2018-05-21T00:05:18.559Z,66.60
2018-05-21T00:07:49.115Z,67.40
2018-05-21T00:10:18.884Z,67.40
2018-05-21T00:12:48.670Z,65.50
2018-05-21T00:15:18.442Z,67.20
2018-05-21T00:17:48.188Z,65.70
2018-05-21T00:20:18.477Z,68.00
2018-05-21T00:22:48.222Z,67.90
2018-05-21T00:25:17.990Z,67.00
2018-05-21T00:27:48.559Z,68.00
2018-05-21T00:30:18.313Z,68.10
2018-05-21T00:32:48.873Z,69.10
2018-05-21T00:35:18.618Z,68.60
2018-05-21T00:37:48.434Z,71.60
2018-05-21T00:40:18.198Z,71.10
2018-05-21T00:42:47.971Z,73.20
2018-05-21T00:45:17.777Z,72.40
2018-05-21T00:47:47.563Z,72.20
2018-05-21T00:50:17.326Z,75.50
2018-05-21T00:52:47.276Z,75.00
2018-05-21T00:55:28.558Z,75.30
2018-05-21T00:57:59.077Z,78.70
2018-05-21T01:00:29.583Z,78.30
2018-05-21T01:02:59.384Z,78.20
2018-05-21T01:05:29.183Z,77.30
2018-05-21T01:07:58.987Z,79.60
2018-05-21T01:10:28.785Z,79.10
2018-05-21T01:12:58.278Z,82.50
2018-05-21T01:15:28.038Z,83.50
2018-05-21T01:17:57.828Z,84.60
2018-05-21T01:20:27.608Z,84.30
2018-05-21T01:22:57.421Z,82.90
2018-05-21T01:25:27.920Z,84.50
2018-05-21T01:27:57.575Z,84.40
2018-05-21T01:30:27.409Z,84.70
2018-05-21T01:32:56.844Z,86.90
2018-05-21T01:35:26.622Z,87.00
2018-05-21T01:37:56.431Z,88.00
2018-05-21T01:40:26.238Z,88.80
2018-05-21T01:42:56.053Z,88.50
2018-05-21T01:45:25.825Z,90.20
2018-05-21T01:47:56.457Z,90.50
2018-05-21T01:50:26.997Z,90.80
2018-05-21T01:52:57.563Z,92.40
2018-05-21T01:55:27.345Z,92.40
2018-05-21T01:57:56.861Z,92.30
2018-05-21T02:00:26.638Z,92.30
2018-05-21T02:02:56.404Z,92.90
2018-05-21T02:05:26.191Z,94.00
2018-05-21T02:07:55.948Z,93.70
2018-05-21T02:10:25.723Z,94.00
2018-05-21T02:12:55.472Z,95.30
2018-05-21T02:15:25.211Z,95.90
2018-05-21T02:17:55.772Z,94.20
2018-05-21T02:20:25.565Z,94.20
2018-05-21T02:22:56.068Z,95.90
2018-05-21T02:25:25.874Z,95.90
2018-05-21T02:27:55.634Z,94.80
2018-05-21T02:30:25.409Z,95.60
2018-05-21T02:32:55.197Z,96.00
2018-05-21T02:35:24.985Z,95.70
2018-05-21T02:37:54.780Z,96.00
2018-05-21T02:40:24.524Z,98.10
2018-05-21T02:42:54.481Z,96.60
2018-05-21T02:45:23.959Z,97.20
2018-05-21T02:47:53.698Z,97.10
2018-05-21T02:50:24.281Z,98.70
2018-05-21T02:52:54.087Z,98.70
2018-05-21T02:55:23.835Z,99.80
2018-05-21T02:57:53.634Z,99.90
2018-05-21T03:00:23.051Z,99.90
2018-05-21T03:02:52.818Z,99.90
2018-05-21T03:05:22.587Z,99.90
2018-05-21T03:07:52.393Z,99.90
2018-05-21T03:10:22.169Z,99.90
2018-05-21T03:12:51.935Z,99.90
2018-05-21T03:15:22.451Z,99.90
2018-05-21T03:17:53.016Z,99.90
2018-05-21T03:20:22.765Z,99.90
2018-05-21T03:22:52.520Z,99.90
2018-05-21T03:25:23.094Z,99.90
2018-05-21T03:27:52.885Z,99.90
2018-05-21T03:30:22.684Z,99.90
2018-05-21T03:32:53.493Z,99.90
2018-05-21T03:35:23.297Z,99.90
2018-05-21T03:37:53.246Z,99.90
2018-05-21T03:40:23.801Z,99.90
2018-05-21T03:42:53.560Z,99.90
2018-05-21T03:45:23.396Z,99.90
2018-05-21T03:47:53.182Z,99.90
2018-05-21T03:50:23.753Z,99.90
2018-05-21T03:52:53.550Z,99.90
2018-05-21T03:55:24.070Z,99.90
2018-05-21T03:57:53.865Z,99.90
2018-05-21T04:00:34.582Z,99.90
2018-05-21T04:06:01.465Z,99.90
2018-05-21T04:08:31.361Z,99.90
2018-05-21T04:11:01.266Z,99.90
2018-05-21T04:13:31.152Z,99.90
2018-05-21T04:16:00.900Z,99.90
2018-05-21T04:18:30.694Z,99.90
2018-05-21T04:21:00.226Z,99.90
2018-05-21T04:23:30.008Z,99.90
2018-05-21T04:25:59.765Z,99.90
2018-05-21T04:28:29.538Z,99.90
2018-05-21T04:31:00.079Z,99.90
2018-05-21T04:33:30.592Z,99.90
2018-05-21T04:36:01.153Z,99.90
2018-05-21T04:38:30.674Z,99.90
2018-05-21T04:41:00.445Z,99.90
2018-05-21T04:43:30.187Z,99.90
2018-05-21T04:45:59.945Z,99.90
2018-05-21T04:48:29.748Z,99.90
2018-05-21T04:50:59.487Z,99.90
2018-05-21T04:53:30.047Z,99.90
2018-05-21T04:55:59.822Z,99.90
2018-05-21T04:58:29.613Z,99.90
2018-05-21T05:00:59.382Z,99.90
2018-05-21T05:03:29.133Z,99.90
2018-05-21T05:05:58.894Z,99.90
2018-05-21T05:08:28.675Z,99.90
2018-05-21T05:10:58.434Z,99.90
2018-05-21T05:13:28.333Z,99.90
2018-05-21T05:15:58.154Z,99.90
2018-05-21T05:18:27.899Z,99.90
2018-05-21T05:20:57.745Z,99.90
2018-05-21T05:23:27.705Z,99.90
2018-05-21T05:25:57.487Z,99.90
2018-05-21T05:28:28.035Z,99.90
2018-05-21T05:30:57.773Z,99.90
2018-05-21T05:33:27.661Z,99.90
2018-05-21T05:35:57.572Z,99.90
2018-05-21T05:38:28.200Z,99.90
2018-05-21T05:40:58.000Z,99.90
2018-05-21T05:43:28.557Z,99.90
2018-05-21T05:45:58.121Z,99.90
2018-05-21T05:48:27.863Z,99.90
2018-05-21T05:50:57.647Z,99.90
2018-05-21T05:53:27.969Z,99.90
2018-05-21T05:55:58.536Z,99.90
2018-05-21T05:58:28.404Z,99.90
2018-05-21T06:00:57.945Z,99.90
2018-05-21T06:03:27.154Z,99.90
2018-05-21T06:05:56.343Z,98.80
2018-05-21T06:08:25.896Z,97.10
2018-05-21T06:10:56.188Z,92.80
2018-05-21T06:13:25.755Z,92.80
2018-05-21T06:15:55.338Z,92.60
2018-05-21T06:18:25.623Z,90.60
2018-05-21T06:20:55.171Z,90.50
2018-05-21T06:23:24.420Z,89.30
2018-05-21T06:25:53.731Z,87.70
2018-05-21T06:28:23.153Z,84.20
2018-05-21T06:30:52.689Z,80.80
2018-05-21T06:33:22.448Z,77.40
2018-05-21T06:35:51.929Z,76.50
2018-05-21T06:38:21.497Z,75.00
2018-05-21T06:40:51.986Z,71.80
2018-05-21T06:43:21.515Z,71.70
2018-05-21T06:45:51.871Z,71.10
2018-05-21T06:48:22.205Z,71.30
2018-05-21T06:50:51.712Z,71.40
2018-05-21T06:53:21.365Z,67.60
2018-05-21T06:55:50.835Z,67.90
2018-05-21T06:58:20.740Z,67.10
2018-05-21T07:00:50.344Z,63.60
2018-05-21T07:03:20.726Z,61.30
2018-05-21T07:05:50.310Z,61.20
2018-05-21T07:08:19.800Z,59.50
2018-05-21T07:10:49.386Z,59.50
2018-05-21T07:13:19.682Z,58.60
2018-05-21T07:15:49.174Z,58.00
2018-05-21T07:18:18.742Z,56.90
2018-05-21T07:20:48.280Z,56.90
2018-05-21T07:23:17.774Z,58.30
2018-05-21T07:25:47.333Z,55.20
2018-05-21T07:28:17.736Z,54.90
2018-05-21T07:30:46.884Z,54.80
2018-05-21T07:33:16.359Z,54.70
2018-05-21T07:35:45.910Z,53.80
2018-05-21T07:38:15.405Z,53.00
2018-05-21T07:40:44.934Z,52.20
2018-05-21T07:43:14.407Z,50.90
2018-05-21T07:45:44.095Z,49.10
2018-05-21T07:48:13.830Z,47.70
2018-05-21T07:50:43.369Z,47.60
2018-05-21T07:53:12.872Z,48.50
2018-05-21T07:55:42.448Z,47.60
2018-05-21T07:58:11.991Z,47.60
2018-05-21T08:00:41.690Z,48.60
2018-05-21T08:03:11.196Z,48.40
2018-05-21T08:05:40.666Z,46.80
2018-05-21T08:08:09.829Z,46.20
2018-05-21T08:10:39.337Z,46.00
2018-05-21T08:13:08.517Z,46.30
2018-05-21T08:15:38.060Z,45.40
2018-05-21T08:18:07.300Z,44.40
2018-05-21T08:20:37.078Z,44.10
2018-05-21T08:23:07.370Z,44.20
2018-05-21T08:25:36.901Z,44.10
2018-05-21T08:28:07.194Z,43.20
2018-05-21T08:30:36.880Z,43.20
2018-05-21T08:33:06.080Z,43.30
2018-05-21T08:35:35.645Z,43.30
2018-05-21T08:38:05.215Z,41.50
2018-05-21T08:40:34.676Z,41.50
2018-05-21T08:43:04.180Z,42.40
2018-05-21T08:45:34.548Z,42.00
2018-05-21T08:48:04.068Z,42.00
2018-05-21T08:50:33.569Z,41.00
2018-05-21T08:53:03.094Z,41.40
2018-05-21T08:55:32.589Z,41.60
2018-05-21T08:58:02.089Z,42.10
2018-05-21T09:00:31.631Z,42.30
2018-05-21T09:03:00.990Z,42.50
2018-05-21T09:05:30.501Z,42.00
2018-05-21T09:08:00.040Z,41.50
2018-05-21T09:10:30.369Z,40.60
2018-05-21T09:13:00.667Z,40.00
2018-05-21T09:15:30.235Z,39.90
2018-05-21T09:17:59.757Z,40.20
2018-05-21T09:20:30.144Z,40.20
2018-05-21T09:22:59.685Z,40.10
2018-05-21T09:25:28.916Z,39.60
2018-05-21T09:27:58.412Z,39.40
2018-05-21T09:30:27.988Z,39.20
2018-05-21T09:32:57.543Z,39.20
2018-05-21T09:35:27.808Z,38.30
2018-05-21T09:37:57.362Z,38.20
2018-05-21T09:40:26.886Z,38.40
2018-05-21T09:42:57.154Z,38.70
2018-05-21T09:45:26.651Z,38.70
2018-05-21T09:47:56.151Z,38.50
2018-05-21T09:50:25.656Z,38.10
2018-05-21T09:52:55.171Z,37.70
2018-05-21T09:55:24.679Z,37.70
2018-05-21T09:57:54.192Z,38.40
2018-05-21T10:00:24.354Z,38.50
2018-05-21T10:02:54.603Z,35.90
2018-05-21T10:05:24.084Z,35.20
2018-05-21T10:07:54.428Z,39.90
2018-05-21T10:10:23.640Z,39.90
2018-05-21T10:12:53.154Z,40.00
2018-05-21T10:15:22.402Z,39.20
2018-05-21T10:17:51.966Z,40.10
2018-05-21T10:20:21.456Z,41.80
2018-05-21T10:22:50.948Z,41.40
2018-05-21T10:25:20.443Z,41.60
2018-05-21T10:27:50.949Z,39.30
2018-05-21T10:30:20.482Z,39.20
2018-05-21T10:32:50.780Z,37.90
2018-05-21T10:35:21.104Z,37.50
2018-05-21T10:37:50.690Z,37.40
2018-05-21T10:40:20.224Z,38.80
2018-05-21T10:42:49.688Z,42.00
2018-05-21T10:45:19.187Z,40.70
2018-05-21T10:47:48.709Z,39.80
2018-05-21T10:50:17.917Z,37.70
2018-05-21T10:52:47.420Z,38.60
2018-05-21T10:55:16.924Z,36.30
2018-05-21T10:57:46.656Z,35.70
2018-05-21T11:00:16.168Z,36.10
2018-05-21T11:02:45.849Z,37.40
2018-05-21T11:05:15.347Z,39.00
2018-05-21T11:07:44.877Z,39.20
2018-05-21T11:10:14.461Z,36.50
2018-05-21T11:12:44.886Z,36.40
2018-05-21T11:15:14.396Z,36.30
2018-05-21T11:17:43.915Z,35.50
2018-05-21T11:20:13.412Z,35.10
2018-05-21T11:22:42.921Z,33.90
2018-05-21T11:25:12.452Z,33.30
2018-05-21T11:27:41.988Z,33.80
2018-05-21T11:30:12.254Z,33.30
2018-05-21T11:32:41.757Z,33.30
2018-05-21T11:35:11.287Z,31.90
2018-05-21T11:37:40.738Z,31.50
2018-05-21T11:40:10.223Z,30.10
2018-05-21T11:42:40.491Z,32.90
2018-05-21T11:45:09.998Z,32.80
2018-05-21T11:47:39.686Z,32.20
2018-05-21T11:50:09.214Z,31.60
2018-05-21T11:52:38.752Z,32.00
2018-05-21T11:55:09.145Z,30.70
2018-05-21T11:57:38.676Z,30.70
2018-05-21T12:00:07.846Z,32.20
2018-05-21T12:02:37.357Z,32.10
2018-05-21T12:05:07.751Z,32.40
2018-05-21T12:07:37.247Z,32.40
2018-05-21T12:10:07.716Z,31.40
2018-05-21T12:12:37.219Z,31.40
2018-05-21T12:15:06.736Z,30.30
2018-05-21T12:17:35.971Z,29.90
2018-05-21T12:20:06.240Z,30.50
2018-05-21T12:22:35.755Z,30.50
2018-05-21T12:25:05.296Z,31.00
2018-05-21T12:27:34.817Z,30.90
2018-05-21T12:30:05.521Z,32.00
2018-05-21T12:32:35.001Z,32.00
2018-05-21T12:35:04.593Z,30.70
2018-05-21T12:37:34.100Z,29.10
2018-05-21T12:40:03.243Z,29.30
2018-05-21T12:42:32.758Z,29.90
2018-05-21T12:45:02.305Z,30.50
2018-05-21T12:47:31.836Z,30.70
2018-05-21T12:50:01.308Z,29.70
2018-05-21T12:52:30.941Z,28.80
2018-05-21T12:55:00.563Z,27.20
2018-05-21T12:57:30.080Z,27.60
2018-05-21T12:59:59.764Z,27.30
2018-05-21T13:02:29.266Z,27.10
2018-05-21T13:04:58.827Z,26.90
2018-05-21T13:07:28.331Z,25.80
2018-05-21T13:09:59.340Z,26.80
2018-05-21T13:12:28.817Z,26.70
2018-05-21T13:14:58.297Z,27.40
2018-05-21T13:17:28.811Z,27.10
2018-05-21T13:19:58.486Z,27.10
2018-05-21T13:22:28.058Z,27.10
2018-05-21T13:24:58.109Z,27.90
2018-05-21T13:27:27.618Z,28.30
2018-05-21T13:29:57.099Z,26.90
2018-05-21T13:32:26.626Z,27.60
2018-05-21T13:34:56.961Z,27.70
2018-05-21T13:37:26.675Z,27.60
2018-05-21T13:39:56.269Z,27.90
2018-05-21T13:42:25.787Z,28.40
2018-05-21T13:44:55.318Z,28.00
2018-05-21T13:47:25.768Z,27.50
2018-05-21T13:49:55.289Z,27.40
2018-05-21T13:52:24.874Z,27.00
2018-05-21T13:54:54.503Z,27.70
2018-05-21T13:57:23.999Z,27.20
2018-05-21T13:59:53.522Z,27.40
2018-05-21T14:02:23.121Z,27.20
2018-05-21T14:04:52.600Z,28.00
2018-05-21T14:07:22.880Z,29.60
2018-05-21T14:09:52.344Z,29.60
2018-05-21T14:12:21.864Z,29.70
2018-05-21T14:14:51.340Z,29.70
2018-05-21T14:17:21.014Z,30.70
2018-05-21T14:19:51.020Z,31.00
2018-05-21T14:22:20.581Z,32.40
2018-05-21T14:24:50.826Z,34.50
2018-05-21T14:27:20.342Z,34.40
2018-05-21T14:29:49.916Z,33.90
2018-05-21T14:32:19.597Z,34.00
2018-05-21T14:34:49.075Z,33.80
2018-05-21T14:37:18.602Z,34.20
2018-05-21T14:39:48.114Z,35.40
2018-05-21T14:42:17.620Z,35.40
2018-05-21T14:44:47.618Z,36.00
2018-05-21T14:47:17.084Z,36.00
2018-05-21T14:49:46.562Z,35.50
2018-05-21T14:52:16.854Z,36.50
2018-05-21T14:54:46.344Z,36.40
2018-05-21T14:57:15.893Z,36.30
2018-05-21T14:59:46.123Z,36.00
2018-05-21T15:02:15.625Z,36.00
2018-05-21T15:04:45.885Z,36.20
2018-05-21T15:07:15.036Z,36.20
2018-05-21T15:09:44.552Z,36.00
2018-05-21T15:12:14.829Z,37.40
2018-05-21T15:14:45.252Z,37.40
2018-05-21T15:17:14.767Z,37.40
2018-05-21T15:19:44.227Z,37.10
2018-05-21T15:22:13.741Z,36.60
2018-05-21T15:24:43.453Z,36.90
2018-05-21T15:27:12.966Z,38.30
2018-05-21T15:29:42.436Z,36.30
2018-05-21T15:32:12.726Z,38.20
2018-05-21T15:34:41.955Z,37.40
2018-05-21T15:37:11.734Z,36.90
2018-05-21T15:39:41.255Z,37.80
2018-05-21T15:42:10.742Z,36.20
2018-05-21T15:44:39.965Z,36.30
2018-05-21T15:47:09.484Z,36.20
2018-05-21T15:49:38.943Z,37.00
2018-05-21T15:52:08.445Z,36.80
2018-05-21T15:54:37.939Z,37.20
2018-05-21T15:57:07.432Z,37.30
2018-05-21T15:59:36.952Z,38.20
2018-05-21T16:02:06.521Z,38.30
2018-05-21T16:04:36.816Z,38.60
2018-05-21T16:07:06.331Z,38.60
2018-05-21T16:09:36.332Z,38.00
2018-05-21T16:12:05.825Z,37.60
2018-05-21T16:14:35.335Z,38.10
2018-05-21T16:17:04.807Z,38.20
2018-05-21T16:19:34.285Z,38.30
2018-05-21T16:22:04.192Z,38.60
2018-05-21T16:24:33.734Z,38.00
2018-05-21T16:27:03.286Z,38.40
2018-05-21T16:29:32.855Z,38.70
2018-05-21T16:32:02.348Z,38.30
2018-05-21T16:34:32.661Z,38.20
2018-05-21T16:37:02.889Z,39.00
2018-05-21T16:39:33.224Z,39.10
2018-05-21T16:42:03.585Z,38.50
2018-05-21T16:44:34.313Z,37.50
2018-05-21T16:47:03.494Z,37.50
2018-05-21T16:49:32.736Z,37.90
2018-05-21T16:52:02.728Z,38.00
2018-05-21T16:54:33.461Z,38.30
2018-05-21T16:57:02.934Z,38.30
2018-05-21T16:59:32.447Z,38.10
2018-05-21T17:02:01.945Z,38.90
2018-05-21T17:04:31.475Z,39.40
2018-05-21T17:07:00.952Z,39.30
2018-05-21T17:09:31.251Z,39.00
2018-05-21T17:12:00.754Z,39.60
2018-05-21T17:14:30.319Z,39.40
2018-05-21T17:16:59.832Z,39.20
2018-05-21T17:19:29.330Z,39.20
2018-05-21T17:21:58.538Z,39.60
2018-05-21T17:24:28.126Z,38.80
2018-05-21T17:26:57.602Z,38.90
2018-05-21T17:29:27.954Z,39.20
2018-05-21T17:31:57.600Z,38.60
2018-05-21T17:34:27.106Z,38.30
2018-05-21T17:36:56.582Z,38.80
2018-05-21T17:39:25.405Z,39.80
2018-05-21T17:41:54.930Z,39.70
2018-05-21T17:44:24.447Z,40.00
2018-05-21T17:46:54.695Z,39.30
2018-05-21T17:49:24.193Z,39.30
2018-05-21T17:51:53.708Z,39.50
2018-05-21T17:54:23.213Z,39.70
2018-05-21T17:56:52.716Z,40.10
2018-05-21T17:59:22.254Z,40.00
2018-05-21T18:01:51.765Z,40.10
2018-05-21T18:04:21.288Z,40.40
2018-05-21T18:06:50.844Z,40.30
2018-05-21T18:09:20.324Z,40.50
2018-05-21T18:11:50.621Z,40.60
2018-05-21T18:14:20.141Z,40.60
2018-05-21T18:16:49.654Z,40.70
2018-05-21T18:19:19.183Z,40.60
2018-05-21T18:21:49.448Z,41.10
2018-05-21T18:24:18.952Z,41.00
2018-05-21T18:26:48.439Z,41.40
2018-05-21T18:29:17.936Z,41.50
2018-05-21T18:31:47.478Z,41.80
2018-05-21T18:34:17.068Z,42.00
2018-05-21T18:36:46.631Z,42.40
2018-05-21T18:39:16.868Z,42.60
2018-05-21T18:41:46.022Z,42.60
2018-05-21T18:44:16.999Z,43.00
2018-05-21T18:46:46.510Z,43.00
2018-05-21T18:49:16.053Z,43.30
2018-05-21T18:51:45.558Z,43.70
2018-05-21T18:54:15.083Z,43.80
2018-05-21T18:56:44.559Z,44.30
2018-05-21T18:59:14.074Z,44.40
2018-05-21T19:01:43.568Z,44.60
2018-05-21T19:04:13.141Z,44.90
2018-05-21T19:06:43.454Z,45.50
2018-05-21T19:09:13.689Z,46.00
2018-05-21T19:11:43.952Z,46.20
2018-05-21T19:14:13.449Z,46.10
2018-05-21T19:16:43.153Z,45.80
2018-05-21T19:19:12.661Z,46.10
2018-05-21T19:21:42.133Z,46.70
2018-05-21T19:24:12.416Z,46.90
2018-05-21T19:26:41.595Z,46.90
2018-05-21T19:29:11.089Z,47.30
2018-05-21T19:31:40.579Z,47.10
2018-05-21T19:34:09.844Z,47.00
2018-05-21T19:36:39.337Z,47.00
2018-05-21T19:39:08.856Z,47.10
2018-05-21T19:41:39.141Z,47.50
2018-05-21T19:44:08.681Z,47.50
2018-05-21T19:46:38.177Z,47.70
2018-05-21T19:49:07.901Z,47.90
2018-05-21T19:51:37.189Z,47.60
2018-05-21T19:54:06.709Z,48.10
2018-05-21T19:56:36.197Z,48.20
2018-05-21T19:59:05.752Z,48.00
2018-05-21T20:01:35.244Z,48.30
2018-05-21T20:04:05.523Z,48.60
2018-05-21T20:06:34.758Z,48.60
2018-05-21T20:09:04.151Z,49.20
2018-05-21T20:11:33.675Z,49.10
2018-05-21T20:14:03.607Z,50.40
2018-05-21T20:16:33.121Z,49.70
2018-05-21T20:19:02.365Z,50.00
2018-05-21T20:21:31.878Z,50.30
2018-05-21T20:24:01.385Z,50.30
2018-05-21T20:26:30.887Z,50.00
2018-05-21T20:29:00.401Z,50.50
2018-05-21T20:31:30.402Z,51.20
2018-05-21T20:34:00.037Z,51.40
2018-05-21T20:36:30.269Z,51.40
2018-05-21T20:39:00.550Z,51.10
2018-05-21T20:41:30.070Z,51.10
2018-05-21T20:43:59.551Z,51.60
2018-05-21T20:46:28.733Z,51.50
2018-05-21T20:48:58.267Z,52.00
2018-05-21T20:51:27.726Z,52.10
2018-05-21T20:53:57.243Z,52.50
2018-05-21T20:56:26.729Z,52.50
2018-05-21T20:58:56.216Z,52.50
2018-05-21T21:01:26.469Z,53.00
2018-05-21T21:03:55.949Z,53.00
2018-05-21T21:06:26.224Z,53.30
2018-05-21T21:08:55.718Z,53.30
2018-05-21T21:11:25.256Z,53.40
2018-05-21T21:13:55.577Z,53.70
2018-05-21T21:16:25.996Z,53.60
2018-05-21T21:18:56.281Z,53.70
2018-05-21T21:21:25.774Z,53.70
2018-05-21T21:23:55.288Z,53.90
2018-05-21T21:26:24.237Z,54.30
2018-05-21T21:28:53.488Z,54.30
2018-05-21T21:31:22.791Z,54.30
2018-05-21T21:33:52.532Z,54.60
2018-05-21T21:36:21.700Z,54.50
2018-05-21T21:38:51.216Z,54.30
2018-05-21T21:41:21.420Z,54.80
2018-05-21T21:43:50.624Z,54.80
2018-05-21T21:46:20.091Z,54.90
2018-05-21T21:48:49.357Z,54.90
2018-05-21T21:51:19.099Z,55.10
2018-05-21T21:53:48.619Z,55.70
2018-05-21T21:56:19.140Z,55.80
2018-05-21T21:58:49.712Z,55.60
2018-05-21T22:01:18.536Z,55.50
2018-05-21T22:03:47.826Z,55.80
2018-05-21T22:06:17.058Z,55.60
2018-05-21T22:08:46.816Z,56.50
2018-05-21T22:11:17.179Z,56.90
2018-05-21T22:13:47.455Z,56.90
2018-05-21T22:16:16.750Z,56.80
2018-05-21T22:18:47.376Z,57.10
2018-05-21T22:21:17.218Z,57.00
2018-05-21T22:23:46.712Z,57.10
2018-05-21T22:26:16.523Z,57.30
2018-05-21T22:28:45.992Z,57.70
2018-05-21T22:31:16.544Z,57.70
2018-05-21T22:33:46.174Z,57.70
2018-05-21T22:36:15.921Z,58.40
2018-05-21T22:38:45.715Z,58.50
2018-05-21T22:41:15.258Z,58.80
2018-05-21T22:43:44.407Z,59.20
2018-05-21T22:46:13.911Z,60.40
2018-05-21T22:48:43.452Z,60.70
2018-05-21T22:51:13.735Z,61.70
2018-05-21T22:53:43.247Z,61.60
2018-05-21T22:56:12.725Z,62.90
2018-05-21T22:58:42.513Z,64.20
2018-05-21T23:01:12.253Z,63.90
2018-05-21T23:03:42.065Z,65.70
2018-05-21T23:06:11.571Z,66.80
2018-05-21T23:08:42.081Z,69.10
2018-05-21T23:11:12.644Z,70.00
2018-05-21T23:13:42.444Z,69.90
2018-05-21T23:16:12.221Z,72.10
2018-05-21T23:18:42.773Z,75.00
2018-05-21T23:21:13.288Z,77.00
2018-05-21T23:23:43.820Z,79.00
2018-05-21T23:26:14.330Z,80.70
2018-05-21T23:28:44.324Z,80.70
2018-05-21T23:31:14.112Z,83.40
2018-05-21T23:33:43.589Z,86.40
2018-05-21T23:36:14.139Z,90.60
2018-05-21T23:38:43.934Z,90.60
2018-05-21T23:41:14.496Z,93.50
2018-05-21T23:43:44.256Z,93.50
2018-05-21T23:46:13.707Z,94.00
2018-05-21T23:48:43.474Z,94.90
2018-05-21T23:51:13.250Z,96.00
2018-05-21T23:53:43.197Z,97.40
2018-05-21T23:56:12.959Z,98.40
2018-05-21T23:58:42.718Z,99.00
